Time;durP1;ratioP1;P1;durP2;ratioP2;P2;SDS_P1;SDS_P2;PMS_P1;PMS_P2;Temp;Humidity;BMP_temperature;BMP_pressure;BME280_temperature;BME280_humidity;BME280_pressure;Samples;Min_cycle;Max_cycle;Signal;HPM_P1;HPM_P2
2021/10/10 00:01:26;;;;;;;;;;;23.70;51.10;;;;;;495280;241;1211;-47
2021/10/10 00:03:27;;;;;;;;;;;23.60;51.20;;;;;;495272;241;1078;-47
2021/10/10 00:05:28;;;;;;;;;;;23.60;51.20;;;;;;495795;240;1044;-47
2021/10/10 00:07:30;;;;;;;;;;;23.60;51.20;;;;;;495230;241;1287;-47
2021/10/10 00:09:31;;;;;;;;;;;23.60;51.10;;;;;;495798;240;1019;-47
2021/10/10 00:11:32;;;;;;;;;;;23.60;51.20;;;;;;495298;240;1344;-47
2021/10/10 00:13:34;;;;;;;;;;;23.60;51.20;;;;;;495770;240;1072;-47
2021/10/10 00:15:35;;;;;;;;;;;23.60;51.20;;;;;;495310;241;1097;-47
2021/10/10 00:17:36;;;;;;;;;;;23.60;51.20;;;;;;495392;240;2197;-47
2021/10/10 00:19:38;;;;;;;;;;;23.60;51.20;;;;;;495278;241;1184;-47
2021/10/10 00:21:39;;;;;;;;;;;23.60;51.30;;;;;;495202;241;1167;-47
2021/10/10 00:23:40;;;;;;;;;;;23.60;51.20;;;;;;495735;240;1048;-47
2021/10/10 00:25:42;;;;;;;;;;;23.60;51.30;;;;;;495478;240;1191;-47
2021/10/10 00:27:43;;;;;;;;;;;23.60;51.30;;;;;;495249;241;1120;-47
2021/10/10 00:29:44;;;;;;;;;;;23.60;51.30;;;;;;495470;240;1031;-46
2021/10/10 00:31:46;;;;;;;;;;;23.60;51.30;;;;;;495319;240;1184;-47
2021/10/10 00:33:47;;;;;;;;;;;23.60;51.30;;;;;;495769;240;1070;-47
2021/10/10 00:35:48;;;;;;;;;;;23.60;51.30;;;;;;495224;241;1141;-47
2021/10/10 00:37:49;;;;;;;;;;;23.60;51.20;;;;;;495171;241;2187;-47
2021/10/10 00:39:51;;;;;;;;;;;23.60;51.10;;;;;;495255;240;1152;-47
2021/10/10 00:41:52;;;;;;;;;;;23.60;51.20;;;;;;495227;241;1339;-47
2021/10/10 00:43:54;;;;;;;;;;;23.60;51.30;;;;;;495405;240;1081;-47
2021/10/10 00:45:55;;;;;;;;;;;23.60;51.20;;;;;;495268;241;1231;-47
2021/10/10 00:47:56;;;;;;;;;;;23.60;51.20;;;;;;495380;240;1031;-47
2021/10/10 00:49:57;;;;;;;;;;;23.60;51.20;;;;;;495300;241;1051;-47
2021/10/10 00:51:59;;;;;;;;;;;23.60;51.10;;;;;;495384;240;1246;-47
2021/10/10 00:54:00;;;;;;;;;;;23.60;51.20;;;;;;495362;240;1250;-47
2021/10/10 00:56:01;;;;;;;;;;;23.60;51.20;;;;;;495142;236;1187;-47
2021/10/10 00:58:03;;;;;;;;;;;23.60;51.20;;;;;;495225;241;2190;-47
2021/10/10 01:00:05;;;;;;;;;;;23.60;51.20;;;;;;495398;240;1045;-47
2021/10/10 01:02:06;;;;;;;;;;;23.60;51.20;;;;;;495417;240;1196;-47
2021/10/10 01:04:07;;;;;;;;;;;23.60;51.20;;;;;;495308;241;1070;-47
2021/10/10 01:06:08;;;;;;;;;;;23.60;51.20;;;;;;495583;240;1290;-47
2021/10/10 01:08:09;;;;;;;;;;;23.60;51.20;;;;;;495236;241;1075;-47
2021/10/10 01:10:12;;;;;;;;;;;23.60;51.20;;;;;;495789;240;1083;-46
2021/10/10 01:12:13;;;;;;;;;;;23.60;51.10;;;;;;495255;240;2209;-47
2021/10/10 01:14:14;;;;;;;;;;;23.60;51.10;;;;;;495802;240;1025;-47
2021/10/10 01:16:15;;;;;;;;;;;23.60;51.20;;;;;;495602;240;1197;-47
2021/10/10 01:18:16;;;;;;;;;;;23.60;51.10;;;;;;495434;240;2170;-47
2021/10/10 01:20:18;;;;;;;;;;;23.60;51.10;;;;;;495286;241;1054;-47
2021/10/10 01:22:19;;;;;;;;;;;23.60;51.20;;;;;;495444;240;1353;-47
2021/10/10 01:24:20;;;;;;;;;;;23.60;51.10;;;;;;495712;240;1230;-47
2021/10/10 01:26:22;;;;;;;;;;;23.60;51.10;;;;;;495480;240;1309;-47
2021/10/10 01:28:23;;;;;;;;;;;23.60;51.00;;;;;;495226;241;1160;-47
2021/10/10 01:30:25;;;;;;;;;;;23.70;51.10;;;;;;495297;241;1091;-47
2021/10/10 01:32:26;;;;;;;;;;;23.60;51.10;;;;;;495264;241;1178;-47
2021/10/10 01:34:27;;;;;;;;;;;23.60;51.10;;;;;;495314;241;1234;-47
2021/10/10 01:36:29;;;;;;;;;;;23.60;51.10;;;;;;495499;240;1196;-47
2021/10/10 01:38:30;;;;;;;;;;;23.60;51.20;;;;;;495658;240;2155;-47
2021/10/10 01:40:33;;;;;;;;;;;23.60;51.10;;;;;;495718;240;1938;-47
2021/10/10 01:42:33;;;;;;;;;;;23.60;51.20;;;;;;495174;240;2294;-47
2021/10/10 01:44:34;;;;;;;;;;;23.60;51.20;;;;;;495381;240;1024;-47
2021/10/10 01:46:35;;;;;;;;;;;23.60;51.20;;;;;;495259;241;1578;-47
2021/10/10 01:48:36;;;;;;;;;;;23.60;51.10;;;;;;495421;240;992;-47
2021/10/10 01:50:38;;;;;;;;;;;23.60;51.10;;;;;;495249;237;1151;-47
2021/10/10 01:52:39;;;;;;;;;;;23.60;51.00;;;;;;495398;240;1158;-47
2021/10/10 01:54:40;;;;;;;;;;;23.60;51.10;;;;;;495511;240;1087;-48
2021/10/10 01:56:42;;;;;;;;;;;23.60;51.10;;;;;;495402;237;1128;-47
2021/10/10 01:58:44;;;;;;;;;;;23.60;51.00;;;;;;495227;241;2193;-47
2021/10/10 02:00:45;;;;;;;;;;;23.60;51.10;;;;;;495264;241;1237;-47
2021/10/10 02:02:46;;;;;;;;;;;23.60;51.10;;;;;;495529;240;1231;-47
2021/10/10 02:04:48;;;;;;;;;;;23.60;51.10;;;;;;495399;240;1065;-47
2021/10/10 02:06:49;;;;;;;;;;;23.60;51.10;;;;;;495449;240;1222;-47
2021/10/10 02:08:50;;;;;;;;;;;23.60;51.10;;;;;;495325;241;1161;-47
2021/10/10 02:10:52;;;;;;;;;;;23.60;51.00;;;;;;495762;240;1346;-47
2021/10/10 02:12:53;;;;;;;;;;;23.60;51.10;;;;;;495253;240;1324;-47
2021/10/10 02:14:54;;;;;;;;;;;23.60;51.10;;;;;;495684;240;1169;-47
2021/10/10 02:16:55;;;;;;;;;;;23.60;51.10;;;;;;495362;240;1191;-47
2021/10/10 02:18:57;;;;;;;;;;;23.50;51.10;;;;;;495240;241;2191;-47
2021/10/10 02:20:58;;;;;;;;;;;23.50;51.10;;;;;;495463;240;1143;-47
2021/10/10 02:22:59;;;;;;;;;;;23.60;51.10;;;;;;495255;241;1079;-47
2021/10/10 02:25:01;;;;;;;;;;;23.60;51.10;;;;;;495316;241;1015;-47
2021/10/10 02:27:02;;;;;;;;;;;23.60;51.00;;;;;;495271;240;1228;-47
2021/10/10 02:29:03;;;;;;;;;;;23.60;51.10;;;;;;495772;240;1062;-47
2021/10/10 02:31:05;;;;;;;;;;;23.60;51.00;;;;;;495263;241;1196;-47
2021/10/10 02:33:06;;;;;;;;;;;23.60;51.10;;;;;;495767;240;1034;-47
2021/10/10 02:35:07;;;;;;;;;;;23.60;51.10;;;;;;495315;241;1085;-47
2021/10/10 02:37:09;;;;;;;;;;;23.60;50.90;;;;;;495244;240;1446;-47
2021/10/10 02:39:10;;;;;;;;;;;23.60;51.10;;;;;;495721;240;2194;-47
2021/10/10 02:41:11;;;;;;;;;;;23.60;51.10;;;;;;495256;241;1328;-47
2021/10/10 02:43:13;;;;;;;;;;;23.60;51.10;;;;;;495216;241;1242;-47
2021/10/10 02:45:14;;;;;;;;;;;23.60;51.00;;;;;;495318;241;1093;-47
2021/10/10 02:47:15;;;;;;;;;;;23.60;50.90;;;;;;495358;240;1242;-47
2021/10/10 02:49:17;;;;;;;;;;;23.60;51.00;;;;;;495783;240;1046;-47
2021/10/10 02:51:18;;;;;;;;;;;23.60;51.00;;;;;;495419;240;1306;-47
2021/10/10 02:53:19;;;;;;;;;;;23.60;51.10;;;;;;495255;241;1330;-47
2021/10/10 02:55:20;;;;;;;;;;;23.60;51.00;;;;;;495769;240;1038;-47
2021/10/10 02:57:22;;;;;;;;;;;23.60;50.90;;;;;;495368;240;1209;-47
2021/10/10 02:59:23;;;;;;;;;;;23.60;50.90;;;;;;495285;240;2177;-47
2021/10/10 03:01:25;;;;;;;;;;;23.60;51.00;;;;;;495474;240;1350;-47
2021/10/10 03:03:26;;;;;;;;;;;23.60;51.10;;;;;;495302;241;1037;-47
2021/10/10 03:05:27;;;;;;;;;;;23.60;51.00;;;;;;495695;240;1066;-47
2021/10/10 03:07:28;;;;;;;;;;;23.60;50.80;;;;;;495482;240;1154;-47
2021/10/10 03:09:30;;;;;;;;;;;23.60;50.90;;;;;;495499;240;1035;-47
2021/10/10 03:11:31;;;;;;;;;;;23.60;51.00;;;;;;495242;241;1370;-47
2021/10/10 03:13:32;;;;;;;;;;;23.60;51.00;;;;;;495383;240;1231;-47
2021/10/10 03:15:34;;;;;;;;;;;23.50;51.00;;;;;;495665;240;1093;-47
2021/10/10 03:17:35;;;;;;;;;;;23.60;51.10;;;;;;495628;240;1194;-47
2021/10/10 03:19:36;;;;;;;;;;;23.50;51.00;;;;;;495276;240;2194;-47
2021/10/10 03:21:38;;;;;;;;;;;23.60;51.00;;;;;;495170;241;1217;-47
2021/10/10 03:23:40;;;;;;;;;;;23.60;50.90;;;;;;495253;241;984;-47
2021/10/10 03:25:41;;;;;;;;;;;23.60;51.00;;;;;;495261;241;1379;-46
2021/10/10 03:27:42;;;;;;;;;;;23.60;50.90;;;;;;495269;240;1210;-47
2021/10/10 03:29:44;;;;;;;;;;;23.60;51.00;;;;;;495212;241;1135;-47
2021/10/10 03:31:45;;;;;;;;;;;23.60;51.00;;;;;;495471;236;1424;-47
2021/10/10 03:33:46;;;;;;;;;;;23.50;50.90;;;;;;495242;241;1155;-47
2021/10/10 03:35:48;;;;;;;;;;;23.60;51.00;;;;;;495612;240;1111;-47
2021/10/10 03:37:49;;;;;;;;;;;23.60;50.90;;;;;;495671;240;1223;-47
2021/10/10 03:39:50;;;;;;;;;;;23.60;50.90;;;;;;495749;240;2198;-47
2021/10/10 03:41:52;;;;;;;;;;;23.50;50.90;;;;;;495501;240;1363;-47
2021/10/10 03:43:53;;;;;;;;;;;23.60;50.90;;;;;;495406;240;1101;-47
2021/10/10 03:45:54;;;;;;;;;;;23.60;50.90;;;;;;495488;240;1125;-47
2021/10/10 03:47:56;;;;;;;;;;;23.50;50.90;;;;;;495460;240;1150;-47
2021/10/10 03:49:57;;;;;;;;;;;23.60;51.00;;;;;;495582;240;1031;-47
2021/10/10 03:51:58;;;;;;;;;;;23.60;50.90;;;;;;495684;240;1359;-47
2021/10/10 03:56:19;;;;;;;;;;;23.60;50.80;;;;;;495724;240;1119;-47
2021/10/10 03:58:20;;;;;;;;;;;23.60;50.80;;;;;;495458;240;2139;-47
2021/10/10 04:00:21;;;;;;;;;;;23.60;50.70;;;;;;495558;240;1034;-46
2021/10/10 04:02:23;;;;;;;;;;;23.60;50.70;;;;;;495762;240;994;-47
2021/10/10 04:04:30;;;;;;;;;;;23.60;50.70;;;;;;495761;240;1023;-46
2021/10/10 04:06:25;;;;;;;;;;;23.70;50.70;;;;;;495230;240;1615;-47
2021/10/10 04:08:27;;;;;;;;;;;23.60;50.80;;;;;;495725;240;1544;-47
2021/10/10 04:10:28;;;;;;;;;;;23.60;50.60;;;;;;495294;240;1031;-47
2021/10/10 04:12:29;;;;;;;;;;;23.60;50.70;;;;;;495395;240;1280;-47
2021/10/10 04:14:30;;;;;;;;;;;23.60;50.70;;;;;;495253;240;1492;-47
2021/10/10 04:16:32;;;;;;;;;;;23.60;50.60;;;;;;495361;240;1154;-47
2021/10/10 04:18:36;;;;;;;;;;;23.70;50.70;;;;;;495290;241;2119;-47
2021/10/10 04:20:35;;;;;;;;;;;23.60;50.70;;;;;;495158;240;2433;-47
2021/10/10 04:22:36;;;;;;;;;;;23.70;50.70;;;;;;495393;240;1236;-47
2021/10/10 04:24:38;;;;;;;;;;;23.60;50.70;;;;;;495322;240;1236;-47
2021/10/10 04:26:39;;;;;;;;;;;23.60;50.70;;;;;;495214;236;1130;-47
2021/10/10 04:28:40;;;;;;;;;;;23.60;50.70;;;;;;495515;240;1140;-47
2021/10/10 04:30:42;;;;;;;;;;;23.60;50.70;;;;;;495189;241;1085;-47
2021/10/10 04:32:43;;;;;;;;;;;23.60;50.70;;;;;;495604;240;1726;-47
2021/10/10 04:34:44;;;;;;;;;;;23.60;50.60;;;;;;495235;241;1014;-47
2021/10/10 04:36:46;;;;;;;;;;;23.70;50.60;;;;;;495297;240;1613;-47
2021/10/10 04:38:47;;;;;;;;;;;23.60;50.60;;;;;;495254;241;2198;-47
2021/10/10 04:40:48;;;;;;;;;;;23.60;50.60;;;;;;495165;241;1542;-47
2021/10/10 04:42:50;;;;;;;;;;;23.60;50.50;;;;;;495208;241;1212;-46
2021/10/10 04:44:51;;;;;;;;;;;23.60;50.60;;;;;;495368;240;1196;-47
2021/10/10 04:46:52;;;;;;;;;;;23.60;50.60;;;;;;495396;240;1204;-47
2021/10/10 04:48:53;;;;;;;;;;;23.70;50.50;;;;;;495543;240;1261;-47
2021/10/10 04:50:55;;;;;;;;;;;23.70;50.60;;;;;;495636;240;1030;-46
2021/10/10 04:52:56;;;;;;;;;;;23.60;50.60;;;;;;495460;240;1223;-47
2021/10/10 04:54:57;;;;;;;;;;;23.60;50.60;;;;;;495299;241;1048;-47
2021/10/10 04:56:59;;;;;;;;;;;23.60;50.60;;;;;;495580;240;1510;-47
2021/10/10 04:59:00;;;;;;;;;;;23.60;50.60;;;;;;495527;240;2193;-47
2021/10/10 05:01:01;;;;;;;;;;;23.60;50.50;;;;;;495262;241;1360;-47
2021/10/10 05:03:03;;;;;;;;;;;23.60;50.60;;;;;;495319;240;1218;-47
2021/10/10 05:05:04;;;;;;;;;;;23.70;50.50;;;;;;495316;241;1026;-47
2021/10/10 05:07:05;;;;;;;;;;;23.70;50.50;;;;;;495471;240;1187;-47
2021/10/10 05:09:07;;;;;;;;;;;23.70;50.50;;;;;;495267;241;1044;-47
2021/10/10 05:11:08;;;;;;;;;;;23.70;50.50;;;;;;495468;240;1465;-47
2021/10/10 05:13:09;;;;;;;;;;;23.60;50.50;;;;;;495452;240;1172;-46
2021/10/10 05:15:11;;;;;;;;;;;23.60;50.60;;;;;;495200;241;1195;-47
2021/10/10 05:17:12;;;;;;;;;;;23.70;50.60;;;;;;495227;240;1328;-47
2021/10/10 05:19:13;;;;;;;;;;;23.60;50.40;;;;;;495299;241;2197;-47
2021/10/10 05:21:15;;;;;;;;;;;23.60;50.50;;;;;;495662;240;1121;-47
2021/10/10 05:23:16;;;;;;;;;;;23.60;50.60;;;;;;495321;240;1117;-47
2021/10/10 05:25:17;;;;;;;;;;;23.70;50.50;;;;;;495611;240;1346;-47
2021/10/10 05:27:19;;;;;;;;;;;23.70;50.40;;;;;;495219;241;1075;-47
2021/10/10 05:29:20;;;;;;;;;;;23.70;50.50;;;;;;495286;241;1264;-47
2021/10/10 05:31:22;;;;;;;;;;;23.60;50.50;;;;;;495442;240;1266;-47
2021/10/10 05:33:23;;;;;;;;;;;23.70;50.50;;;;;;495564;240;1027;-47
2021/10/10 05:35:24;;;;;;;;;;;23.60;50.40;;;;;;495266;241;1087;-47
2021/10/10 05:37:25;;;;;;;;;;;23.70;50.40;;;;;;495222;240;1173;-47
2021/10/10 05:39:27;;;;;;;;;;;23.60;50.40;;;;;;495287;240;2115;-47
2021/10/10 05:41:28;;;;;;;;;;;23.60;50.50;;;;;;495391;240;1435;-47
2021/10/10 05:43:29;;;;;;;;;;;23.70;50.50;;;;;;495250;241;1038;-47
2021/10/10 05:45:31;;;;;;;;;;;23.70;50.40;;;;;;495325;241;1209;-47
2021/10/10 05:47:32;;;;;;;;;;;23.60;50.40;;;;;;495220;241;1481;-47
2021/10/10 05:49:33;;;;;;;;;;;23.70;50.40;;;;;;495292;241;1037;-47
2021/10/10 05:51:35;;;;;;;;;;;23.70;50.40;;;;;;495491;236;1311;-47
2021/10/10 05:53:37;;;;;;;;;;;23.70;50.50;;;;;;495404;240;1041;-47
2021/10/10 05:55:39;;;;;;;;;;;23.70;50.40;;;;;;495309;241;1045;-47
2021/10/10 05:57:44;;;;;;;;;;;23.60;50.40;;;;;;495680;240;1860;-47
2021/10/10 05:59:46;;;;;;;;;;;23.70;50.30;;;;;;495187;240;2264;-47
2021/10/10 06:01:46;;;;;;;;;;;23.70;50.40;;;;;;495060;241;1502;-47
2021/10/10 06:03:47;;;;;;;;;;;23.70;50.40;;;;;;495674;240;1034;-47
2021/10/10 06:05:49;;;;;;;;;;;23.70;50.30;;;;;;495627;240;956;-47
2021/10/10 06:07:50;;;;;;;;;;;23.60;50.30;;;;;;495369;240;1322;-47
2021/10/10 06:09:51;;;;;;;;;;;23.70;50.40;;;;;;495280;241;1139;-47
2021/10/10 06:11:52;;;;;;;;;;;23.60;50.40;;;;;;495573;240;1150;-47
2021/10/10 06:13:54;;;;;;;;;;;23.60;50.40;;;;;;495767;240;1062;-47
2021/10/10 06:15:55;;;;;;;;;;;23.60;50.40;;;;;;495338;240;1386;-47
2021/10/10 06:17:56;;;;;;;;;;;23.60;50.40;;;;;;495220;241;1379;-47
2021/10/10 06:19:58;;;;;;;;;;;23.70;50.40;;;;;;495756;240;2190;-47
2021/10/10 06:21:59;;;;;;;;;;;23.70;50.40;;;;;;495129;241;1138;-47
2021/10/10 06:24:00;;;;;;;;;;;23.70;50.30;;;;;;495393;240;1027;-47
2021/10/10 06:26:02;;;;;;;;;;;23.60;50.30;;;;;;495131;241;1210;-47
2021/10/10 06:28:03;;;;;;;;;;;23.70;50.30;;;;;;495201;241;1202;-47
2021/10/10 06:30:04;;;;;;;;;;;23.70;50.30;;;;;;495384;236;1333;-47
2021/10/10 06:32:06;;;;;;;;;;;23.60;50.30;;;;;;495173;240;1161;-47
2021/10/10 06:34:07;;;;;;;;;;;23.60;50.40;;;;;;495410;240;1066;-47
2021/10/10 06:36:08;;;;;;;;;;;23.60;50.30;;;;;;495246;241;1045;-47
2021/10/10 06:38:10;;;;;;;;;;;23.60;50.40;;;;;;495463;240;1190;-47
2021/10/10 06:40:11;;;;;;;;;;;23.70;50.40;;;;;;495294;240;2186;-47
2021/10/10 06:42:12;;;;;;;;;;;23.60;50.30;;;;;;495383;240;1077;-47
2021/10/10 06:44:14;;;;;;;;;;;23.70;50.30;;;;;;495201;241;1045;-47
2021/10/10 06:46:15;;;;;;;;;;;23.70;50.20;;;;;;495353;240;1137;-47
2021/10/10 06:48:16;;;;;;;;;;;23.70;50.30;;;;;;495218;241;1080;-47
2021/10/10 06:50:17;;;;;;;;;;;23.70;50.30;;;;;;495292;241;1021;-47
2021/10/10 06:52:19;;;;;;;;;;;23.70;50.30;;;;;;495288;241;1040;-47
2021/10/10 06:54:20;;;;;;;;;;;23.70;50.20;;;;;;495310;241;1026;-47
2021/10/10 06:56:21;;;;;;;;;;;23.70;50.20;;;;;;495567;240;1270;-47
2021/10/10 06:58:23;;;;;;;;;;;23.70;50.20;;;;;;495602;240;1055;-47
2021/10/10 07:00:24;;;;;;;;;;;23.70;50.30;;;;;;495247;241;2193;-47
2021/10/10 07:02:25;;;;;;;;;;;23.60;50.30;;;;;;495381;240;1202;-47
2021/10/10 07:04:27;;;;;;;;;;;23.70;50.30;;;;;;495580;240;1046;-47
2021/10/10 07:06:28;;;;;;;;;;;23.70;50.30;;;;;;495290;241;1091;-47
2021/10/10 07:08:29;;;;;;;;;;;23.60;50.20;;;;;;495776;240;1066;-47
2021/10/10 07:10:31;;;;;;;;;;;23.70;50.30;;;;;;495557;240;1415;-47
2021/10/10 07:12:32;;;;;;;;;;;23.70;50.30;;;;;;495599;240;1190;-47
2021/10/10 07:14:33;;;;;;;;;;;23.60;50.30;;;;;;495752;240;1085;-47
2021/10/10 07:16:35;;;;;;;;;;;23.60;50.30;;;;;;495152;241;1367;-47
2021/10/10 07:18:45;;;;;;;;;;;23.60;50.30;;;;;;495219;241;1067;-47
2021/10/10 07:20:56;;;;;;;;;;;23.60;50.40;;;;;;494815;240;2289;-47
2021/10/10 07:23:02;;;;;;;;;;;23.60;50.30;;;;;;494973;240;2239;-47
2021/10/10 07:25:05;;;;;;;;;;;23.60;50.30;;;;;;495362;240;2272;-47
2021/10/10 07:27:06;;;;;;;;;;;23.60;50.30;;;;;;495163;241;1274;-47
2021/10/10 07:29:07;;;;;;;;;;;23.70;50.20;;;;;;495488;240;1023;-47
2021/10/10 07:31:09;;;;;;;;;;;23.60;50.20;;;;;;495207;236;1309;-47
2021/10/10 07:33:10;;;;;;;;;;;23.60;50.20;;;;;;495264;241;1244;-47
2021/10/10 07:35:11;;;;;;;;;;;23.60;50.20;;;;;;495258;241;1091;-46
2021/10/10 07:37:13;;;;;;;;;;;23.60;50.20;;;;;;495139;241;1230;-46
2021/10/10 07:39:14;;;;;;;;;;;23.60;50.40;;;;;;495482;240;1062;-47
2021/10/10 07:41:15;;;;;;;;;;;23.60;50.30;;;;;;495291;240;2173;-47
2021/10/10 07:43:17;;;;;;;;;;;23.60;50.20;;;;;;495601;240;1051;-47
2021/10/10 07:45:21;;;;;;;;;;;23.60;50.20;;;;;;495551;240;1231;-47
2021/10/10 07:47:35;;;;;;;;;;;23.60;50.20;;;;;;495140;240;2036;-47
2021/10/10 07:49:30;;;;;;;;;;;23.70;50.20;;;;;;494921;240;1382;-47
2021/10/10 07:51:32;;;;;;;;;;;23.70;50.20;;;;;;495235;241;1173;-47
2021/10/10 07:53:33;;;;;;;;;;;23.60;50.20;;;;;;495312;241;1182;-47
2021/10/10 07:55:34;;;;;;;;;;;23.60;50.30;;;;;;495757;240;1175;-47
2021/10/10 07:57:36;;;;;;;;;;;23.60;50.20;;;;;;495720;240;1169;-47
2021/10/10 07:59:37;;;;;;;;;;;23.60;50.20;;;;;;495626;240;1040;-47
2021/10/10 08:01:38;;;;;;;;;;;23.60;50.20;;;;;;495172;240;2128;-47
2021/10/10 08:03:40;;;;;;;;;;;23.70;50.20;;;;;;495411;240;1236;-47
2021/10/10 08:05:41;;;;;;;;;;;23.70;50.10;;;;;;495563;240;1463;-47
2021/10/10 08:07:42;;;;;;;;;;;23.60;50.10;;;;;;495247;241;1227;-47
2021/10/10 08:09:44;;;;;;;;;;;23.70;50.20;;;;;;495772;240;1065;-47
2021/10/10 08:11:45;;;;;;;;;;;23.60;50.20;;;;;;495319;240;1192;-47
2021/10/10 08:13:46;;;;;;;;;;;23.70;50.20;;;;;;495742;240;1089;-47
2021/10/10 08:15:48;;;;;;;;;;;23.70;50.20;;;;;;495234;241;1484;-47
2021/10/10 08:17:49;;;;;;;;;;;23.60;50.10;;;;;;495201;241;1209;-47
2021/10/10 08:19:50;;;;;;;;;;;23.60;50.10;;;;;;495375;240;1083;-47
2021/10/10 08:21:51;;;;;;;;;;;23.60;50.20;;;;;;495185;241;2189;-47
2021/10/10 08:23:53;;;;;;;;;;;23.60;50.20;;;;;;495242;240;1176;-47
2021/10/10 08:25:54;;;;;;;;;;;23.60;50.20;;;;;;495706;240;1374;-47
2021/10/10 08:27:56;;;;;;;;;;;23.60;50.20;;;;;;495334;240;1121;-47
2021/10/10 08:29:57;;;;;;;;;;;23.60;50.10;;;;;;495773;240;1098;-47
2021/10/10 08:31:58;;;;;;;;;;;23.70;50.20;;;;;;495456;240;1192;-47
2021/10/10 08:33:59;;;;;;;;;;;23.60;50.00;;;;;;495639;240;1072;-47
2021/10/10 08:36:02;;;;;;;;;;;23.60;50.10;;;;;;495463;240;1220;-47
2021/10/10 08:38:02;;;;;;;;;;;23.60;50.10;;;;;;495209;241;2260;-47
2021/10/10 08:40:04;;;;;;;;;;;23.70;50.20;;;;;;495670;240;2111;-47
2021/10/10 08:42:05;;;;;;;;;;;23.60;50.10;;;;;;495251;241;1271;-47
2021/10/10 08:44:06;;;;;;;;;;;23.60;50.20;;;;;;495390;240;1064;-47
2021/10/10 08:46:09;;;;;;;;;;;23.60;50.10;;;;;;495243;241;1146;-47
2021/10/10 08:48:09;;;;;;;;;;;23.70;50.10;;;;;;495433;240;2143;-47
2021/10/10 08:50:10;;;;;;;;;;;23.60;50.10;;;;;;495281;240;1001;-47
2021/10/10 08:52:14;;;;;;;;;;;23.70;50.10;;;;;;495223;241;1230;-47
2021/10/10 08:54:13;;;;;;;;;;;23.60;50.10;;;;;;495133;240;2220;-47
2021/10/10 08:56:14;;;;;;;;;;;23.70;50.10;;;;;;495640;240;1377;-47
2021/10/10 08:58:17;;;;;;;;;;;23.70;50.10;;;;;;495181;241;1271;-47
2021/10/10 09:00:19;;;;;;;;;;;23.70;50.10;;;;;;495206;240;2303;-47
2021/10/10 09:02:20;;;;;;;;;;;23.70;50.10;;;;;;495113;240;2737;-47
2021/10/10 09:04:20;;;;;;;;;;;23.60;50.10;;;;;;495408;240;2167;-47
2021/10/10 09:06:21;;;;;;;;;;;23.60;50.10;;;;;;495404;240;1277;-47
2021/10/10 09:08:23;;;;;;;;;;;23.60;50.10;;;;;;495602;240;1073;-47
2021/10/10 09:10:27;;;;;;;;;;;23.60;50.10;;;;;;495775;240;1076;-47
2021/10/10 09:12:26;;;;;;;;;;;23.60;50.00;;;;;;495110;241;1403;-47
2021/10/10 09:14:28;;;;;;;;;;;23.70;50.00;;;;;;495268;241;1052;-47
2021/10/10 09:16:29;;;;;;;;;;;23.60;50.10;;;;;;495213;241;1226;-47
2021/10/10 09:18:30;;;;;;;;;;;23.70;50.10;;;;;;495270;241;1031;-47
2021/10/10 09:20:32;;;;;;;;;;;23.70;50.00;;;;;;495700;240;2120;-47
2021/10/10 09:22:33;;;;;;;;;;;23.70;50.00;;;;;;495443;240;1196;-47
2021/10/10 09:24:34;;;;;;;;;;;23.70;50.10;;;;;;495627;240;1367;-47
2021/10/10 09:26:36;;;;;;;;;;;23.70;50.00;;;;;;494765;240;1242;-47
2021/10/10 09:28:39;;;;;;;;;;;23.70;50.00;;;;;;495419;240;1079;-47
2021/10/10 09:30:38;;;;;;;;;;;23.70;50.00;;;;;;495200;240;1823;-47
2021/10/10 09:32:40;;;;;;;;;;;23.70;50.00;;;;;;495440;240;1271;-47
2021/10/10 09:34:41;;;;;;;;;;;23.70;50.00;;;;;;495419;240;1050;-47
2021/10/10 09:36:42;;;;;;;;;;;23.60;50.00;;;;;;495297;240;1075;-47
2021/10/10 09:38:46;;;;;;;;;;;23.60;50.00;;;;;;495794;240;1064;-47
2021/10/10 09:40:52;;;;;;;;;;;23.60;50.00;;;;;;495193;236;2182;-47
2021/10/10 09:42:52;;;;;;;;;;;23.60;50.00;;;;;;494916;241;2201;-47
2021/10/10 09:44:53;;;;;;;;;;;23.60;50.10;;;;;;494224;240;2425;-47
2021/10/10 09:46:53;;;;;;;;;;;23.60;50.00;;;;;;495066;240;2567;-47
2021/10/10 09:48:54;;;;;;;;;;;23.60;50.00;;;;;;495719;240;1270;-47
2021/10/10 09:50:55;;;;;;;;;;;23.60;50.10;;;;;;495197;241;1465;-47
2021/10/10 09:52:57;;;;;;;;;;;23.60;50.10;;;;;;495216;241;1222;-47
2021/10/10 09:54:58;;;;;;;;;;;23.60;50.10;;;;;;495502;240;988;-47
2021/10/10 09:56:59;;;;;;;;;;;23.60;50.00;;;;;;495675;240;1127;-47
2021/10/10 09:59:01;;;;;;;;;;;23.70;50.00;;;;;;495271;240;1184;-46
2021/10/10 10:01:02;;;;;;;;;;;23.70;50.00;;;;;;495507;240;2119;-47
2021/10/10 10:03:06;;;;;;;;;;;23.70;50.00;;;;;;495447;240;1206;-46
2021/10/10 10:05:04;;;;;;;;;;;23.70;49.90;;;;;;495270;240;1538;-47
2021/10/10 10:07:06;;;;;;;;;;;23.70;50.00;;;;;;495510;240;1109;-47
2021/10/10 10:09:07;;;;;;;;;;;23.60;50.00;;;;;;494266;241;1091;-47
2021/10/10 10:11:09;;;;;;;;;;;23.70;50.00;;;;;;495586;240;1356;-47
2021/10/10 10:13:10;;;;;;;;;;;23.70;49.90;;;;;;495764;240;1024;-47
2021/10/10 10:15:11;;;;;;;;;;;23.70;49.90;;;;;;495757;240;1310;-47
2021/10/10 10:17:13;;;;;;;;;;;23.70;49.90;;;;;;495559;240;1305;-47
2021/10/10 10:19:14;;;;;;;;;;;23.70;49.80;;;;;;495770;240;982;-47
2021/10/10 10:21:15;;;;;;;;;;;23.60;49.90;;;;;;495564;240;2111;-47
2021/10/10 10:23:17;;;;;;;;;;;23.70;50.00;;;;;;495270;240;974;-47
2021/10/10 10:25:18;;;;;;;;;;;23.60;50.00;;;;;;495643;240;1035;-47
2021/10/10 10:27:21;;;;;;;;;;;23.60;50.00;;;;;;495620;240;1101;-47
2021/10/10 10:29:24;;;;;;;;;;;23.60;50.00;;;;;;495155;241;2256;-47
2021/10/10 10:31:23;;;;;;;;;;;23.60;50.00;;;;;;495034;240;1950;-47
2021/10/10 10:33:24;;;;;;;;;;;23.70;50.00;;;;;;495380;240;1094;-47
2021/10/10 10:35:27;;;;;;;;;;;23.60;50.00;;;;;;495241;241;1201;-47
2021/10/10 10:37:27;;;;;;;;;;;23.60;50.00;;;;;;495191;240;2216;-47
2021/10/10 10:39:28;;;;;;;;;;;23.60;50.00;;;;;;495273;241;1057;-47
2021/10/10 10:41:30;;;;;;;;;;;23.70;49.90;;;;;;495633;240;2202;-47
2021/10/10 10:43:31;;;;;;;;;;;23.70;49.90;;;;;;495178;241;1296;-47
2021/10/10 10:45:32;;;;;;;;;;;23.70;49.80;;;;;;495587;237;1105;-47
2021/10/10 10:47:34;;;;;;;;;;;23.60;49.90;;;;;;495317;240;1198;-47
2021/10/10 10:49:35;;;;;;;;;;;23.70;49.90;;;;;;495520;240;1035;-47
2021/10/10 10:51:40;;;;;;;;;;;23.70;49.90;;;;;;495695;240;1360;-47
2021/10/10 10:53:38;;;;;;;;;;;23.60;49.90;;;;;;494972;240;2148;-47
2021/10/10 10:55:39;;;;;;;;;;;23.70;49.90;;;;;;495650;240;1187;-47
2021/10/10 10:57:41;;;;;;;;;;;23.70;49.90;;;;;;495258;240;1197;-47
2021/10/10 10:59:42;;;;;;;;;;;23.60;49.90;;;;;;495255;240;2203;-47
2021/10/10 11:01:43;;;;;;;;;;;23.70;49.90;;;;;;495208;241;2179;-47
2021/10/10 11:03:46;;;;;;;;;;;23.70;49.90;;;;;;495457;240;1172;-47
2021/10/10 11:05:46;;;;;;;;;;;23.70;49.80;;;;;;495221;240;2051;-47
2021/10/10 11:07:47;;;;;;;;;;;23.70;49.80;;;;;;495156;241;1044;-46
2021/10/10 11:09:48;;;;;;;;;;;23.70;49.80;;;;;;495204;240;1064;-47
2021/10/10 11:11:50;;;;;;;;;;;23.70;49.80;;;;;;495445;240;2030;-47
2021/10/10 11:13:51;;;;;;;;;;;23.70;49.90;;;;;;495290;241;1183;-46
2021/10/10 11:15:52;;;;;;;;;;;23.70;49.90;;;;;;495747;240;1470;-47
2021/10/10 11:17:54;;;;;;;;;;;23.70;49.90;;;;;;495230;241;1204;-47
2021/10/10 11:19:55;;;;;;;;;;;23.70;49.90;;;;;;495347;241;1039;-47
2021/10/10 11:21:57;;;;;;;;;;;23.70;49.80;;;;;;495759;240;2194;-47
2021/10/10 11:23:58;;;;;;;;;;;23.70;49.80;;;;;;495429;240;1077;-47
2021/10/10 11:26:01;;;;;;;;;;;23.70;49.80;;;;;;495244;241;1231;-47
2021/10/10 11:28:01;;;;;;;;;;;23.70;49.80;;;;;;495554;240;2438;-47
2021/10/10 11:30:03;;;;;;;;;;;23.70;49.80;;;;;;495626;240;1065;-47
2021/10/10 11:32:03;;;;;;;;;;;23.70;49.80;;;;;;495138;241;2227;-47
2021/10/10 11:34:05;;;;;;;;;;;23.60;49.80;;;;;;495275;241;1163;-46
2021/10/10 11:36:06;;;;;;;;;;;23.60;49.80;;;;;;495389;240;1041;-47
2021/10/10 11:38:07;;;;;;;;;;;23.70;49.90;;;;;;495440;240;1115;-47
2021/10/10 11:40:09;;;;;;;;;;;23.60;49.80;;;;;;495801;240;1010;-47
2021/10/10 11:42:11;;;;;;;;;;;23.70;49.80;;;;;;495198;241;2195;-47
2021/10/10 11:44:12;;;;;;;;;;;23.70;49.90;;;;;;495253;241;1062;-47
2021/10/10 11:46:20;;;;;;;;;;;23.70;49.80;;;;;;495455;240;1141;-47
2021/10/10 11:48:15;;;;;;;;;;;23.70;49.70;;;;;;495208;240;1562;-47
2021/10/10 11:50:16;;;;;;;;;;;23.70;49.80;;;;;;495494;240;1038;-47
2021/10/10 11:52:20;;;;;;;;;;;23.70;49.80;;;;;;495170;241;1181;-47
2021/10/10 11:54:20;;;;;;;;;;;23.70;49.70;;;;;;495092;241;2367;-47
2021/10/10 11:56:21;;;;;;;;;;;23.70;49.70;;;;;;495489;240;1108;-47
2021/10/10 11:58:24;;;;;;;;;;;23.70;49.70;;;;;;495675;240;1098;-46
2021/10/10 12:00:24;;;;;;;;;;;23.70;49.70;;;;;;495178;241;2046;-47